Aviation Digital Data Service (ADDS)

Output produced by METARs form (0034 UTC 17 July 2019)
found at http://www.aviationweather.gov/metar/data/
 
HKEL 170000Z 17004KT 9999 FEW017CB BKN080 13/12 Q1026
TAF HKEL 161700Z 1618/1718 30005KT 9999 FEW020CB BKN021 
     BECMG 1620/1623 14005KT CAVOK
       
HKJK 170000Z VRB02KT 9999 BKN016 15/13 Q1025 NOSIG
TAF HKJK 161700Z 1618/1724 06005KT 9999 SCT022 
     BECMG 1620/1623 VRB05KT BKN016 
     BECMG 1708/1711 10010KT BKN023
       
HKKI 162100Z 04004KT 9999 FEW018CB BKN080 20/15 Q1020
TAF HKKI 161700Z 1618/1718 21005KT 9999 FEW022CB SCT023 SCT090 
     BECMG 1620/1623 08005KT CAVOK
       
HKML 162000Z 18018KT 9999 SHRA BKN020TCU 23/21 Q1019
TAF HKML 162300Z 1700/1724 20010KT 9999 BKN020 
     TEMPO 1702/1706 -SHRA BKN019 
     BECMG 1709/1712 18020KT FEW023CB BKN024 
     BECMG 1718/1721 19010KT SCT020
       
HKMO 170000Z 23004KT 9999 FEW018 BKN080 21/21 Q1018 NOSIG
TAF HKMO 161700Z 1618/1718 21010KT 9999 SCT020 
     TEMPO 1700/1706 -SHRA BKN020 
     BECMG 1709/1712 18020KT FEW023CB BKN024 
     BECMG 1715/1718 21010KT SCT020
       
HKNW 170000Z 00000KT 9999 BKN017 15/13 Q1024